createdAt,value
2023-02-04T00:00:42.706Z,4.24
2023-02-04T00:01:44.577Z,4.22
2023-02-04T00:02:46.541Z,4.21
2023-02-04T00:03:48.578Z,4.21
2023-02-04T00:04:50.396Z,4.21
2023-02-04T00:05:52.506Z,4.20
2023-02-04T00:06:54.387Z,4.19
2023-02-04T00:07:56.361Z,4.21
2023-02-04T00:08:58.446Z,4.20
2023-02-04T00:10:00.346Z,4.18
2023-02-04T00:11:02.277Z,4.20
2023-02-04T00:12:04.213Z,4.19
2023-02-04T00:13:06.149Z,4.19
2023-02-04T00:14:07.993Z,4.20
2023-02-04T00:15:11.074Z,4.23
2023-02-04T00:16:13.154Z,4.22
2023-02-04T00:17:15.191Z,4.19
2023-02-04T00:18:17.063Z,4.21
2023-02-04T00:19:18.920Z,4.20
2023-02-04T00:20:20.969Z,4.21
2023-02-04T00:21:22.837Z,4.20
2023-02-04T00:22:26.754Z,4.21
2023-02-04T00:23:28.691Z,4.21
2023-02-04T00:24:31.172Z,4.20
2023-02-04T00:25:33.188Z,4.21
2023-02-04T00:26:35.109Z,4.18
2023-02-04T00:27:36.993Z,4.17
2023-02-04T00:28:38.894Z,4.16
2023-02-04T00:29:40.754Z,4.18
2023-02-04T00:30:42.774Z,4.18
2023-02-04T00:31:44.756Z,4.17
2023-02-04T00:32:46.789Z,4.20
2023-02-04T00:33:48.717Z,4.23
2023-02-04T00:34:50.644Z,4.25
2023-02-04T00:35:52.610Z,4.25
2023-02-04T00:36:54.513Z,4.26
2023-02-04T00:37:56.520Z,4.25
2023-02-04T00:38:58.371Z,4.24
2023-02-04T00:40:00.222Z,4.27
2023-02-04T00:41:02.140Z,4.26
2023-02-04T00:42:06.049Z,4.25
2023-02-04T00:43:07.985Z,4.25
2023-02-04T00:44:09.903Z,4.26
2023-02-04T00:45:12.181Z,4.26
2023-02-04T00:46:14.024Z,4.27
2023-02-04T00:47:15.994Z,4.28
2023-02-04T00:48:17.953Z,4.24
2023-02-04T00:49:19.773Z,4.24
2023-02-04T00:50:21.620Z,4.26
2023-02-04T00:51:23.610Z,4.29
2023-02-04T00:52:25.469Z,4.29
2023-02-04T00:53:27.436Z,4.27
2023-02-04T00:54:29.420Z,4.27
2023-02-04T00:55:31.277Z,4.26
2023-02-04T00:56:33.945Z,4.23
2023-02-04T00:57:35.848Z,4.32
2023-02-04T00:58:37.935Z,4.40
2023-02-04T00:59:39.772Z,4.41
2023-02-04T01:00:41.661Z,4.40
2023-02-04T01:01:43.947Z,4.39
2023-02-04T01:02:45.894Z,4.35
2023-02-04T01:03:47.906Z,4.33
2023-02-04T01:04:49.703Z,4.31
2023-02-04T01:05:51.604Z,4.34
2023-02-04T01:06:53.439Z,4.33
2023-02-04T01:07:55.284Z,4.34
2023-02-04T01:08:57.225Z,4.35
2023-02-04T01:09:59.169Z,4.37
2023-02-04T01:11:00.993Z,4.35
2023-02-04T01:12:02.900Z,4.32
2023-02-04T01:13:04.845Z,4.31
2023-02-04T01:14:06.764Z,4.34
2023-02-04T01:15:08.866Z,4.35
2023-02-04T01:16:10.999Z,4.36
2023-02-04T01:17:12.952Z,4.37
2023-02-04T01:18:14.811Z,4.41
2023-02-04T01:19:16.679Z,4.41
2023-02-04T01:20:18.602Z,4.44
2023-02-04T01:21:20.417Z,4.46
2023-02-04T01:22:22.347Z,4.48
2023-02-04T01:23:24.316Z,4.52
2023-02-04T01:24:26.189Z,4.53
2023-02-04T01:25:28.076Z,4.55
2023-02-04T01:26:29.983Z,4.55
2023-02-04T01:27:31.912Z,4.55
2023-02-04T01:28:33.781Z,4.54
2023-02-04T01:29:35.614Z,4.51
2023-02-04T01:30:37.629Z,4.51
2023-02-04T01:31:39.663Z,4.51
2023-02-04T01:32:41.650Z,4.52
2023-02-04T01:33:43.535Z,4.53
2023-02-04T01:34:45.382Z,4.54
2023-02-04T01:35:47.360Z,4.55
2023-02-04T01:36:49.327Z,4.57
2023-02-04T01:37:51.213Z,4.54
2023-02-04T01:38:53.121Z,4.53
2023-02-04T01:39:54.947Z,4.51
2023-02-04T01:40:57.620Z,4.52
2023-02-04T01:42:01.254Z,4.52
2023-02-04T01:43:03.313Z,4.53
2023-02-04T01:44:05.352Z,4.53
2023-02-04T01:45:07.903Z,4.53
2023-02-04T01:46:09.889Z,4.56
2023-02-04T01:47:11.807Z,4.59
2023-02-04T01:48:20.623Z,4.59
2023-02-04T01:49:22.765Z,4.58
2023-02-04T01:50:24.737Z,4.54
2023-02-04T01:51:28.772Z,4.53
2023-02-04T01:52:32.530Z,4.58
2023-02-04T01:53:35.129Z,4.73
2023-02-04T01:54:37.049Z,4.78
2023-02-04T01:55:38.963Z,4.77
2023-02-04T01:56:42.645Z,4.76
2023-02-04T01:57:45.061Z,4.75
2023-02-04T01:58:47.382Z,4.77
2023-02-04T01:59:49.815Z,4.84
2023-02-04T02:00:52.108Z,4.85
2023-02-04T02:01:54.735Z,4.82
2023-02-04T02:02:56.630Z,4.75
2023-02-04T02:03:58.523Z,4.72
2023-02-04T02:05:00.434Z,4.71
2023-02-04T02:06:02.489Z,4.70
2023-02-04T02:07:06.001Z,4.69
2023-02-04T02:08:08.563Z,4.68
2023-02-04T02:09:10.473Z,4.67
2023-02-04T02:10:13.165Z,4.62
2023-02-04T02:11:15.131Z,4.57
2023-02-04T02:12:16.983Z,4.54
2023-02-04T02:13:19.639Z,4.53
2023-02-04T02:14:21.893Z,4.53
2023-02-04T02:15:25.126Z,4.55
2023-02-04T02:16:27.469Z,4.57
2023-02-04T02:17:29.411Z,4.50
2023-02-04T02:18:31.227Z,4.47
2023-02-04T02:19:37.029Z,4.48
2023-02-04T02:20:39.198Z,4.48
2023-02-04T02:21:45.677Z,4.47
2023-02-04T02:22:51.887Z,4.43
2023-02-04T02:23:55.528Z,4.40
2023-02-04T02:24:57.394Z,4.38
2023-02-04T02:25:59.276Z,4.37
2023-02-04T02:27:03.669Z,4.34
2023-02-04T02:28:07.829Z,4.33
2023-02-04T02:29:09.682Z,4.32
2023-02-04T02:30:12.728Z,4.29
2023-02-04T02:31:15.603Z,4.30
2023-02-04T02:32:17.813Z,4.31
2023-02-04T02:33:20.614Z,4.35
2023-02-04T02:34:22.525Z,4.33
2023-02-04T02:35:24.502Z,4.37
2023-02-04T02:36:26.405Z,4.40
2023-02-04T02:37:28.475Z,4.44
2023-02-04T02:38:30.317Z,4.43
2023-02-04T02:39:32.791Z,4.44
2023-02-04T02:40:34.818Z,4.44
2023-02-04T02:41:36.841Z,4.41
2023-02-04T02:42:39.031Z,4.40
2023-02-04T02:43:40.946Z,4.39
2023-02-04T02:44:43.492Z,4.37
2023-02-04T02:45:45.952Z,4.31
2023-02-04T02:46:47.923Z,4.32
2023-02-04T02:47:50.342Z,4.34
2023-02-04T02:48:52.290Z,4.36
2023-02-04T02:49:55.125Z,4.36
2023-02-04T02:50:57.085Z,4.39
2023-02-04T02:51:59.059Z,4.42
2023-02-04T02:53:01.712Z,4.40
2023-02-04T02:54:03.565Z,4.38
2023-02-04T02:55:05.600Z,4.39
2023-02-04T02:56:11.302Z,4.39
2023-02-04T02:57:14.897Z,4.39
2023-02-04T02:58:20.910Z,4.36
2023-02-04T02:59:23.234Z,4.38
2023-02-04T03:00:29.254Z,4.38
2023-02-04T03:01:31.709Z,4.39
2023-02-04T03:02:33.556Z,4.38
2023-02-04T03:03:50.337Z,4.38
2023-02-04T03:04:55.809Z,4.39
2023-02-04T03:06:08.745Z,4.41
2023-02-04T03:07:12.000Z,4.41
2023-02-04T03:08:15.586Z,4.45
2023-02-04T03:09:17.810Z,4.53
2023-02-04T03:10:19.715Z,4.56
2023-02-04T03:11:22.848Z,4.56
2023-02-04T03:12:24.661Z,4.53
2023-02-04T03:13:26.940Z,4.51
2023-02-04T03:14:29.706Z,4.49
2023-02-04T03:15:32.197Z,4.45
2023-02-04T03:16:34.864Z,4.45
2023-02-04T03:17:36.728Z,4.46
2023-02-04T03:18:39.169Z,4.48
2023-02-04T03:19:41.349Z,4.50
2023-02-04T03:20:43.830Z,4.51
2023-02-04T03:21:46.042Z,4.48
2023-02-04T03:22:47.853Z,4.49
2023-02-04T03:23:49.868Z,4.46
2023-02-04T03:24:51.894Z,4.49
2023-02-04T03:25:54.409Z,4.51
2023-02-04T03:26:56.309Z,4.46
2023-02-04T03:27:59.002Z,4.45
2023-02-04T03:29:01.205Z,4.41
2023-02-04T03:30:03.206Z,4.42
2023-02-04T03:31:05.236Z,4.41
2023-02-04T03:32:07.194Z,4.39
2023-02-04T03:33:09.430Z,4.37
2023-02-04T03:34:11.323Z,4.38
2023-02-04T03:35:13.346Z,4.37
2023-02-04T03:36:15.701Z,4.36
2023-02-04T03:37:17.561Z,4.38
2023-02-04T03:38:20.034Z,4.38
2023-02-04T03:39:22.001Z,4.35
2023-02-04T03:40:23.926Z,4.32
2023-02-04T03:41:25.806Z,4.31
2023-02-04T03:42:27.603Z,4.33
2023-02-04T03:43:29.549Z,4.34
2023-02-04T03:44:31.380Z,4.34
2023-02-04T03:45:44.667Z,4.33
2023-02-04T03:46:47.414Z,4.32
2023-02-04T03:47:49.228Z,4.31
2023-02-04T03:48:51.095Z,4.27
2023-02-04T03:49:52.993Z,4.27
2023-02-04T03:50:54.813Z,4.27
2023-02-04T03:51:56.786Z,4.29
2023-02-04T03:52:58.648Z,4.32
2023-02-04T03:54:00.508Z,4.29
2023-02-04T03:55:02.337Z,4.25
2023-02-04T03:56:04.312Z,4.26
2023-02-04T03:57:06.317Z,4.32
2023-02-04T03:58:08.405Z,4.35
2023-02-04T03:59:10.354Z,4.34
2023-02-04T04:00:12.660Z,4.36
2023-02-04T04:01:14.601Z,4.38
2023-02-04T04:02:16.567Z,4.40
2023-02-04T04:03:18.465Z,4.41
2023-02-04T04:04:20.351Z,4.40
2023-02-04T04:05:22.283Z,4.37
2023-02-04T04:06:24.256Z,4.35
2023-02-04T04:07:26.141Z,4.31
2023-02-04T04:08:27.971Z,4.28
2023-02-04T04:09:29.904Z,4.28
2023-02-04T04:10:32.158Z,4.24
2023-02-04T04:11:34.227Z,4.20
2023-02-04T04:12:36.156Z,4.17
2023-02-04T04:13:38.125Z,4.13
2023-02-04T04:14:40.024Z,4.11
2023-02-04T04:15:41.835Z,4.11
2023-02-04T04:16:43.742Z,4.15
2023-02-04T04:17:45.669Z,4.18
2023-02-04T04:18:47.653Z,4.17
2023-02-04T04:19:49.932Z,4.19
2023-02-04T04:20:51.802Z,4.16
2023-02-04T04:21:53.678Z,4.16
2023-02-04T04:22:55.605Z,4.16
2023-02-04T04:23:57.517Z,4.14
2023-02-04T04:24:59.378Z,4.13
2023-02-04T04:26:01.340Z,4.13
2023-02-04T04:27:03.353Z,4.13
2023-02-04T04:28:05.388Z,4.14
2023-02-04T04:29:07.287Z,4.09
2023-02-04T04:30:09.536Z,4.03
2023-02-04T04:31:11.465Z,4.03
2023-02-04T04:32:13.334Z,4.00
2023-02-04T04:33:15.345Z,4.00
2023-02-04T04:34:17.286Z,3.93
2023-02-04T04:35:19.208Z,3.92
2023-02-04T04:36:21.207Z,3.93
2023-02-04T04:37:23.133Z,3.92
2023-02-04T04:38:25.009Z,3.91
2023-02-04T04:39:26.939Z,3.91
2023-02-04T04:40:28.875Z,3.94
2023-02-04T04:41:30.817Z,3.91
2023-02-04T04:42:32.765Z,3.90
2023-02-04T04:43:34.598Z,3.90
2023-02-04T04:44:36.602Z,3.88
2023-02-04T04:45:38.663Z,3.86
2023-02-04T04:46:41.050Z,3.86
2023-02-04T04:47:42.990Z,3.81
2023-02-04T04:48:44.918Z,3.80
2023-02-04T04:49:46.763Z,3.82
2023-02-04T04:50:48.602Z,3.83
2023-02-04T04:51:50.501Z,3.79
2023-02-04T04:52:52.321Z,3.78
2023-02-04T04:53:54.422Z,3.84
2023-02-04T04:54:56.307Z,3.87
2023-02-04T04:55:58.058Z,3.88
2023-02-04T04:56:59.908Z,3.87
2023-02-04T04:58:01.734Z,3.83
2023-02-04T04:59:03.780Z,3.81
2023-02-04T05:00:06.770Z,3.81
2023-02-04T05:01:08.748Z,3.81
2023-02-04T05:02:10.722Z,3.76
2023-02-04T05:03:12.636Z,3.75
2023-02-04T05:04:14.481Z,3.74
2023-02-04T05:05:16.448Z,3.76
2023-02-04T05:06:18.309Z,3.83
2023-02-04T05:07:20.147Z,3.90
2023-02-04T05:08:22.091Z,3.95
2023-02-04T05:09:24.007Z,3.98
2023-02-04T05:10:25.930Z,3.98
2023-02-04T05:11:27.817Z,3.96
2023-02-04T05:12:29.631Z,3.91
2023-02-04T05:13:31.627Z,3.88
2023-02-04T05:14:33.741Z,3.90
2023-02-04T05:15:35.900Z,3.91
2023-02-04T05:16:37.958Z,3.92
2023-02-04T05:17:39.930Z,3.92
2023-02-04T05:18:42.110Z,3.92
2023-02-04T05:19:44.030Z,3.91
2023-02-04T05:20:46.153Z,3.91
2023-02-04T05:21:48.051Z,3.94
2023-02-04T05:22:49.925Z,3.96
2023-02-04T05:23:51.817Z,3.97
2023-02-04T05:24:53.744Z,3.97
2023-02-04T05:25:55.692Z,3.90
2023-02-04T05:26:57.589Z,3.89
2023-02-04T05:27:59.646Z,3.89
2023-02-04T05:29:01.612Z,3.91
2023-02-04T05:30:03.462Z,3.95
2023-02-04T05:31:05.392Z,3.95
2023-02-04T05:32:07.307Z,3.97
2023-02-04T05:33:09.203Z,3.99
2023-02-04T05:34:11.010Z,3.99
2023-02-04T05:35:12.853Z,3.95
2023-02-04T05:36:14.748Z,3.93
2023-02-04T05:37:17.812Z,3.93
2023-02-04T05:38:19.753Z,3.92
2023-02-04T05:39:21.703Z,3.93
2023-02-04T05:40:23.609Z,3.95
2023-02-04T05:41:25.430Z,3.94
2023-02-04T05:42:27.263Z,3.93
2023-02-04T05:43:29.285Z,3.90
2023-02-04T05:44:31.163Z,3.90
2023-02-04T05:45:33.188Z,3.92
2023-02-04T05:46:35.121Z,3.91
2023-02-04T05:47:36.965Z,3.86
2023-02-04T05:48:40.438Z,3.86
2023-02-04T05:49:42.342Z,3.83
2023-02-04T05:50:44.090Z,3.79
2023-02-04T05:51:46.415Z,3.79
2023-02-04T05:52:48.558Z,3.80
2023-02-04T05:53:50.586Z,3.77
2023-02-04T05:54:52.676Z,3.76
2023-02-04T05:55:54.455Z,3.71
2023-02-04T05:56:56.553Z,3.69
2023-02-04T05:57:58.761Z,3.71
2023-02-04T05:59:00.592Z,3.72
2023-02-04T06:00:02.677Z,3.72
2023-02-04T06:01:05.183Z,3.79
2023-02-04T06:02:07.092Z,3.86
2023-02-04T06:03:08.982Z,3.86
2023-02-04T06:04:10.962Z,3.86
2023-02-04T06:05:13.000Z,3.85
2023-02-04T06:06:14.955Z,3.85
2023-02-04T06:07:18.097Z,3.82
2023-02-04T06:08:20.048Z,3.81
2023-02-04T06:09:22.817Z,3.79
2023-02-04T06:10:25.032Z,3.77
2023-02-04T06:11:27.496Z,3.71
2023-02-04T06:12:29.765Z,3.66
2023-02-04T06:13:31.626Z,3.63
2023-02-04T06:14:33.514Z,3.62
2023-02-04T06:15:35.490Z,3.58
2023-02-04T06:16:37.386Z,3.54
2023-02-04T06:17:39.451Z,3.52
2023-02-04T06:18:41.395Z,3.51
2023-02-04T06:19:43.249Z,3.50
2023-02-04T06:20:45.089Z,3.49
2023-02-04T06:21:47.012Z,3.50
2023-02-04T06:22:51.973Z,3.49
2023-02-04T06:23:53.932Z,3.52
2023-02-04T06:24:55.803Z,3.49
2023-02-04T06:25:57.704Z,3.49
2023-02-04T06:26:59.504Z,3.53
2023-02-04T06:28:01.416Z,3.57
2023-02-04T06:29:03.425Z,3.60
2023-02-04T06:30:05.451Z,3.59
2023-02-04T06:31:09.560Z,3.58
2023-02-04T06:32:11.481Z,3.56
2023-02-04T06:33:13.363Z,3.54
2023-02-04T06:34:15.622Z,3.52
2023-02-04T06:35:18.186Z,3.51
2023-02-04T06:36:20.131Z,3.47
2023-02-04T06:37:24.217Z,3.43
2023-02-04T06:38:26.266Z,3.37
2023-02-04T06:39:28.128Z,3.37
2023-02-04T06:40:30.231Z,3.38
2023-02-04T06:41:32.283Z,3.32
2023-02-04T06:42:34.170Z,3.29
2023-02-04T06:43:36.077Z,3.26
2023-02-04T06:44:38.007Z,3.20
2023-02-04T06:45:39.961Z,3.09
2023-02-04T06:46:41.993Z,2.99
2023-02-04T06:47:43.910Z,2.87
2023-02-04T06:48:45.760Z,2.78
2023-02-04T06:49:47.633Z,2.64
2023-02-04T06:50:49.652Z,2.57
2023-02-04T06:51:52.041Z,2.60
2023-02-04T06:52:53.904Z,2.51
2023-02-04T06:53:55.725Z,2.50
2023-02-04T06:54:57.576Z,2.51
2023-02-04T06:55:59.471Z,2.52
2023-02-04T06:57:06.941Z,2.54
2023-02-04T06:58:08.889Z,2.53
2023-02-04T06:59:10.965Z,2.52
2023-02-04T07:00:13.215Z,2.55
2023-02-04T07:01:15.178Z,2.59
2023-02-04T07:02:17.232Z,2.63
2023-02-04T07:03:19.201Z,2.66
2023-02-04T07:04:21.094Z,2.67
2023-02-04T07:05:22.998Z,2.69
2023-02-04T07:06:24.933Z,2.69
2023-02-04T07:07:27.091Z,2.72
2023-02-04T07:08:28.992Z,2.75
2023-02-04T07:09:30.942Z,2.78
2023-02-04T07:10:33.389Z,2.78
2023-02-04T07:11:35.505Z,2.76
2023-02-04T07:12:37.635Z,2.72
2023-02-04T07:13:39.518Z,2.73
2023-02-04T07:14:41.366Z,2.75
2023-02-04T07:15:43.189Z,2.72
2023-02-04T07:16:45.118Z,2.72
2023-02-04T07:17:47.035Z,2.64
2023-02-04T07:18:48.912Z,2.63
2023-02-04T07:19:50.821Z,2.61
2023-02-04T07:20:55.746Z,2.61
2023-02-04T07:21:57.769Z,2.60
2023-02-04T07:22:59.765Z,2.57
2023-02-04T07:24:01.640Z,2.58
2023-02-04T07:25:03.549Z,2.55
2023-02-04T07:26:05.472Z,2.50
2023-02-04T07:27:07.354Z,2.47
2023-02-04T07:28:09.317Z,2.45
2023-02-04T07:29:17.450Z,2.45
2023-02-04T07:30:22.731Z,2.46
2023-02-04T07:31:24.704Z,2.48
2023-02-04T07:32:28.182Z,2.50
2023-02-04T07:33:30.069Z,2.53
2023-02-04T07:34:32.162Z,2.48
2023-02-04T07:35:34.066Z,2.50
2023-02-04T07:36:35.965Z,2.50
2023-02-04T07:37:37.810Z,2.50
2023-02-04T07:38:39.691Z,2.44
2023-02-04T07:39:41.662Z,2.43
2023-02-04T07:40:43.792Z,2.42
2023-02-04T07:41:45.908Z,2.45
2023-02-04T07:42:47.724Z,2.49
2023-02-04T07:43:49.606Z,2.49
2023-02-04T07:44:51.545Z,2.51
2023-02-04T07:45:53.471Z,2.51
2023-02-04T07:46:55.373Z,2.49
2023-02-04T07:47:57.257Z,2.52
2023-02-04T07:48:59.243Z,2.53
2023-02-04T07:50:01.243Z,2.53
2023-02-04T07:51:03.280Z,2.55
2023-02-04T07:52:05.248Z,2.54
2023-02-04T07:53:07.075Z,2.51
2023-02-04T07:54:08.949Z,2.51
2023-02-04T07:55:11.153Z,2.53
2023-02-04T07:56:12.958Z,2.55
2023-02-04T07:57:14.951Z,2.51
2023-02-04T07:58:17.031Z,2.48
2023-02-04T07:59:18.968Z,2.50
2023-02-04T08:00:20.943Z,2.52
2023-02-04T08:01:22.816Z,2.55
2023-02-04T08:02:24.805Z,2.58
2023-02-04T08:03:26.743Z,2.56
2023-02-04T08:04:28.678Z,2.58
2023-02-04T08:05:30.748Z,2.58
2023-02-04T08:06:32.701Z,2.60
2023-02-04T08:07:34.744Z,2.56
2023-02-04T08:08:36.635Z,2.53
2023-02-04T08:09:38.491Z,2.58
2023-02-04T08:10:40.352Z,2.61
2023-02-04T08:11:42.246Z,2.62
2023-02-04T08:12:44.169Z,2.64
2023-02-04T08:13:46.055Z,2.64
2023-02-04T08:14:47.971Z,2.67
2023-02-04T08:15:49.960Z,2.67
2023-02-04T08:16:51.880Z,2.62
2023-02-04T08:17:53.814Z,2.62
2023-02-04T08:18:55.760Z,2.62
2023-02-04T08:19:58.132Z,2.62
2023-02-04T08:21:01.724Z,2.61
2023-02-04T08:22:03.583Z,2.62
2023-02-04T08:23:05.546Z,2.62
2023-02-04T08:24:07.468Z,2.64
2023-02-04T08:25:11.671Z,2.64
2023-02-04T08:26:13.580Z,2.64
2023-02-04T08:27:15.444Z,2.66
2023-02-04T08:28:17.474Z,2.64
2023-02-04T08:29:19.417Z,2.67
2023-02-04T08:30:21.352Z,2.71
2023-02-04T08:31:23.393Z,2.74
2023-02-04T08:32:27.169Z,2.75
2023-02-04T08:33:29.143Z,2.76
2023-02-04T08:34:31.546Z,2.74
2023-02-04T08:35:33.455Z,2.66
2023-02-04T08:36:35.298Z,2.65
2023-02-04T08:37:37.091Z,2.64
2023-02-04T08:38:39.004Z,2.63
2023-02-04T08:39:44.669Z,2.66
2023-02-04T08:40:46.623Z,2.68
2023-02-04T08:41:49.547Z,2.67
2023-02-04T08:42:51.393Z,2.64
2023-02-04T08:43:53.467Z,2.67
2023-02-04T08:44:55.648Z,2.64
2023-02-04T08:45:57.534Z,2.68
2023-02-04T08:46:59.432Z,2.69
2023-02-04T08:48:01.358Z,2.70
2023-02-04T08:49:03.366Z,2.63
2023-02-04T08:50:05.291Z,2.62
2023-02-04T08:51:07.213Z,2.62
2023-02-04T08:52:09.189Z,2.65
2023-02-04T08:53:11.114Z,2.60
2023-02-04T08:54:13.040Z,2.63
2023-02-04T08:55:16.164Z,2.64
2023-02-04T08:56:20.689Z,2.63
2023-02-04T08:57:22.644Z,2.63
2023-02-04T08:58:24.668Z,2.62
2023-02-04T08:59:26.620Z,2.65
2023-02-04T09:00:28.809Z,2.68
2023-02-04T09:01:33.123Z,2.72
2023-02-04T09:02:35.014Z,2.72
2023-02-04T09:03:37.474Z,2.71
2023-02-04T09:04:39.453Z,2.67
2023-02-04T09:05:41.291Z,2.62
2023-02-04T09:06:44.034Z,2.57
2023-02-04T09:07:46.398Z,2.58
2023-02-04T09:08:48.282Z,2.58
2023-02-04T09:09:50.190Z,2.58
2023-02-04T09:10:52.130Z,2.58
2023-02-04T09:11:54.003Z,2.60
2023-02-04T09:12:56.518Z,2.64
2023-02-04T09:13:58.339Z,2.64
2023-02-04T09:15:00.272Z,2.67
2023-02-04T09:16:02.161Z,2.66
2023-02-04T09:17:06.045Z,2.68
2023-02-04T09:18:19.454Z,2.69
2023-02-04T09:19:25.672Z,2.65
2023-02-04T09:20:29.545Z,2.62
2023-02-04T09:21:32.076Z,2.65
2023-02-04T09:22:33.990Z,2.68
2023-02-04T09:23:35.994Z,2.67
2023-02-04T09:24:37.822Z,2.59
2023-02-04T09:25:40.302Z,2.55
2023-02-04T09:26:42.144Z,2.51
2023-02-04T09:27:44.071Z,2.47
2023-02-04T09:28:46.078Z,2.42
2023-02-04T09:29:47.954Z,2.36
2023-02-04T09:30:49.843Z,2.34
2023-02-04T09:31:51.783Z,2.32
2023-02-04T09:32:53.699Z,2.30
2023-02-04T09:33:55.706Z,2.26
2023-02-04T09:34:57.596Z,2.26
2023-02-04T09:35:59.490Z,2.23
2023-02-04T09:37:01.343Z,2.20
2023-02-04T09:38:03.356Z,2.18
2023-02-04T09:39:06.393Z,2.17
2023-02-04T09:40:08.667Z,2.17
2023-02-04T09:41:12.148Z,2.21
2023-02-04T09:42:15.239Z,2.22
2023-02-04T09:43:20.811Z,2.22
2023-02-04T09:44:25.147Z,2.23
2023-02-04T09:45:28.769Z,2.22
2023-02-04T09:46:31.721Z,2.14
2023-02-04T09:47:33.668Z,2.16
2023-02-04T09:48:35.467Z,2.19
2023-02-04T09:49:37.460Z,2.22
2023-02-04T09:50:39.373Z,2.20
2023-02-04T09:51:42.436Z,2.17
2023-02-04T09:52:44.606Z,2.14
2023-02-04T09:53:47.845Z,2.17
2023-02-04T09:54:49.904Z,2.14
2023-02-04T09:55:52.115Z,2.18
2023-02-04T09:56:54.002Z,2.22
2023-02-04T09:57:55.881Z,2.20
2023-02-04T09:58:57.817Z,2.16
2023-02-04T09:59:59.736Z,2.15
2023-02-04T10:01:21.447Z,2.17
2023-02-04T10:02:26.947Z,2.22
2023-02-04T10:03:28.833Z,2.25
2023-02-04T10:04:30.886Z,2.28
2023-02-04T10:05:34.635Z,2.32
2023-02-04T10:06:37.701Z,2.37
2023-02-04T10:07:39.625Z,2.36
2023-02-04T10:08:42.401Z,2.33
2023-02-04T10:09:44.336Z,2.35
2023-02-04T10:10:48.269Z,2.38
2023-02-04T10:11:50.405Z,2.43
2023-02-04T10:12:53.889Z,2.44
2023-02-04T10:13:56.700Z,2.40
2023-02-04T10:15:00.639Z,2.40
2023-02-04T10:16:04.235Z,2.44
2023-02-04T10:17:06.261Z,2.46
2023-02-04T10:18:08.872Z,2.49
2023-02-04T10:19:16.146Z,2.53
2023-02-04T10:20:19.679Z,2.54
2023-02-04T10:21:22.990Z,2.60
2023-02-04T10:22:24.962Z,2.65
2023-02-04T10:23:26.798Z,2.64
2023-02-04T10:24:30.917Z,2.64
2023-02-04T10:25:32.755Z,2.64
2023-02-04T10:26:34.624Z,2.67
2023-02-04T10:27:37.383Z,2.67
2023-02-04T10:28:40.557Z,2.69
2023-02-04T10:29:42.743Z,2.66
2023-02-04T10:30:44.708Z,2.68
2023-02-04T10:31:48.593Z,2.71
2023-02-04T10:32:50.764Z,2.71
2023-02-04T10:34:02.466Z,2.74
2023-02-04T10:35:04.483Z,2.77
2023-02-04T10:36:06.879Z,2.77
2023-02-04T10:37:18.322Z,2.78
2023-02-04T10:38:20.702Z,2.80
2023-02-04T10:39:23.919Z,2.79
2023-02-04T10:40:30.500Z,2.78
2023-02-04T10:41:34.697Z,2.74
2023-02-04T10:42:36.598Z,2.74
2023-02-04T10:43:39.417Z,2.75
2023-02-04T10:44:46.594Z,2.77
2023-02-04T10:45:55.399Z,2.76
2023-02-04T10:47:01.683Z,2.77
2023-02-04T10:48:04.333Z,2.80
2023-02-04T10:49:17.138Z,2.78
2023-02-04T10:50:20.473Z,2.85
2023-02-04T10:51:22.365Z,2.91
2023-02-04T10:52:27.206Z,2.93
2023-02-04T10:53:47.503Z,2.92
2023-02-04T10:54:49.409Z,2.97
2023-02-04T10:55:51.714Z,2.97
2023-02-04T10:56:53.516Z,2.98
2023-02-04T10:57:55.449Z,3.03
2023-02-04T10:58:57.355Z,3.04
2023-02-04T11:00:00.439Z,3.06
2023-02-04T11:01:02.399Z,3.10
2023-02-04T11:02:24.158Z,3.19
2023-02-04T11:03:27.167Z,3.32
2023-02-04T11:04:29.109Z,3.39
2023-02-04T11:05:34.334Z,3.49
2023-02-04T11:06:36.189Z,3.55
2023-02-04T11:07:38.065Z,3.54
2023-02-04T11:08:40.936Z,3.49
2023-02-04T11:09:43.793Z,3.48
2023-02-04T11:10:45.979Z,3.49
2023-02-04T11:11:49.088Z,3.49
2023-02-04T11:12:53.875Z,3.52
2023-02-04T11:13:56.127Z,3.56
2023-02-04T11:14:58.730Z,3.62
2023-02-04T11:16:09.683Z,3.65
2023-02-04T11:17:20.235Z,3.73
2023-02-04T11:18:22.002Z,3.73
2023-02-04T11:19:39.463Z,3.71
2023-02-04T11:20:41.539Z,3.69
2023-02-04T11:21:45.597Z,3.71
2023-02-04T11:22:53.948Z,3.64
2023-02-04T11:24:16.955Z,3.56
2023-02-04T11:25:35.297Z,3.54
2023-02-04T11:26:37.331Z,3.57
2023-02-04T11:27:40.058Z,3.50
2023-02-04T11:28:49.520Z,3.48
2023-02-04T11:29:51.436Z,3.51
2023-02-04T11:31:01.116Z,3.50
2023-02-04T11:32:05.124Z,3.50
2023-02-04T11:33:07.293Z,3.50
2023-02-04T11:34:24.188Z,3.51
2023-02-04T11:35:27.708Z,3.47
2023-02-04T11:36:30.158Z,3.46
2023-02-04T11:37:36.527Z,3.43
2023-02-04T11:38:39.147Z,3.43
2023-02-04T11:39:50.425Z,3.43
2023-02-04T11:40:56.590Z,3.44
2023-02-04T11:42:01.669Z,3.46
2023-02-04T11:43:09.416Z,3.46
2023-02-04T11:44:11.849Z,3.43
2023-02-04T11:45:18.665Z,3.40
2023-02-04T11:46:20.759Z,3.35
2023-02-04T11:47:25.239Z,3.31
2023-02-04T11:48:27.279Z,3.26
2023-02-04T11:49:29.296Z,3.27
2023-02-04T11:50:40.013Z,3.26
2023-02-04T11:51:41.859Z,3.25
2023-02-04T11:52:43.906Z,3.25
2023-02-04T11:53:51.042Z,3.23
2023-02-04T11:54:53.760Z,3.25
2023-02-04T11:55:55.658Z,3.24
2023-02-04T11:57:00.019Z,3.26
2023-02-04T11:58:02.077Z,3.27
2023-02-04T11:59:04.015Z,3.29
2023-02-04T12:00:06.116Z,3.29
2023-02-04T12:01:16.979Z,3.33
2023-02-04T12:02:26.546Z,3.34
2023-02-04T12:03:34.576Z,3.34
2023-02-04T12:04:36.513Z,3.23
2023-02-04T12:05:42.362Z,3.18
2023-02-04T12:06:44.411Z,3.22
2023-02-04T12:07:47.135Z,3.22
2023-02-04T12:08:48.976Z,3.20
2023-02-04T12:09:50.870Z,3.21
2023-02-04T12:11:12.571Z,3.25
2023-02-04T12:12:23.270Z,3.31
2023-02-04T12:13:25.751Z,3.29
2023-02-04T12:14:35.627Z,3.25
2023-02-04T12:15:37.546Z,3.20
2023-02-04T12:16:49.845Z,3.19
2023-02-04T12:18:01.999Z,3.16
2023-02-04T12:19:03.961Z,3.16
2023-02-04T12:20:05.996Z,3.17
2023-02-04T12:21:08.528Z,3.20
2023-02-04T12:22:10.432Z,3.20
2023-02-04T12:23:12.300Z,3.18
2023-02-04T12:24:14.244Z,3.14
2023-02-04T12:25:17.438Z,3.15
2023-02-04T12:26:19.312Z,3.15
2023-02-04T12:27:21.235Z,3.16
2023-02-04T12:28:23.290Z,3.18
2023-02-04T12:29:25.171Z,3.20
2023-02-04T12:30:27.355Z,3.23
2023-02-04T12:31:30.010Z,3.25
2023-02-04T12:32:31.958Z,3.22
2023-02-04T12:33:33.789Z,3.20
2023-02-04T12:34:35.652Z,3.22
2023-02-04T12:35:37.683Z,3.21
2023-02-04T12:36:39.624Z,3.17
2023-02-04T12:37:42.105Z,3.22
2023-02-04T12:38:44.034Z,3.26
2023-02-04T12:39:45.965Z,3.28
2023-02-04T12:40:47.950Z,3.27
2023-02-04T12:41:49.789Z,3.25
2023-02-04T12:42:51.721Z,3.23
2023-02-04T12:43:55.954Z,3.12
2023-02-04T12:44:58.090Z,3.13
2023-02-04T12:46:00.110Z,3.13
2023-02-04T12:47:01.990Z,3.15
2023-02-04T12:48:04.521Z,3.06
2023-02-04T12:49:08.318Z,3.07
2023-02-04T12:50:13.202Z,3.10
2023-02-04T12:51:15.133Z,3.14
2023-02-04T12:52:17.008Z,3.15
2023-02-04T12:53:18.896Z,3.15
2023-02-04T12:54:20.910Z,3.16
2023-02-04T12:55:23.804Z,3.18
2023-02-04T12:56:25.651Z,3.18
2023-02-04T12:57:27.609Z,3.17
2023-02-04T12:58:29.441Z,3.12
2023-02-04T12:59:34.160Z,3.09
2023-02-04T13:00:36.069Z,3.09
2023-02-04T13:01:38.187Z,3.04
2023-02-04T13:02:40.065Z,3.02
2023-02-04T13:03:42.055Z,3.01
2023-02-04T13:04:44.053Z,2.99
2023-02-04T13:05:45.907Z,2.97
2023-02-04T13:06:47.810Z,2.96
2023-02-04T13:07:49.708Z,2.97
2023-02-04T13:08:51.629Z,2.96
2023-02-04T13:09:53.712Z,2.93
2023-02-04T13:10:55.760Z,2.94
2023-02-04T13:11:57.683Z,2.97
2023-02-04T13:13:02.770Z,2.99
2023-02-04T13:14:06.022Z,2.99
2023-02-04T13:15:08.586Z,2.98
2023-02-04T13:16:10.623Z,2.95
2023-02-04T13:17:12.605Z,2.95
2023-02-04T13:18:17.106Z,2.99
2023-02-04T13:19:19.324Z,3.02
2023-02-04T13:20:21.196Z,2.99
2023-02-04T13:21:23.453Z,3.01
2023-02-04T13:22:25.342Z,3.03
2023-02-04T13:23:27.228Z,3.00
2023-02-04T13:24:29.426Z,2.96
2023-02-04T13:25:31.786Z,2.97
2023-02-04T13:26:34.038Z,2.97
2023-02-04T13:27:36.419Z,2.99
2023-02-04T13:28:38.303Z,2.97
2023-02-04T13:29:40.123Z,2.91
2023-02-04T13:30:42.263Z,2.90
2023-02-04T13:31:44.221Z,2.95
2023-02-04T13:32:46.802Z,2.95
2023-02-04T13:33:48.677Z,2.98
2023-02-04T13:34:50.577Z,3.00
2023-02-04T13:35:52.521Z,2.97
2023-02-04T13:36:54.404Z,2.92
2023-02-04T13:37:56.601Z,2.89
2023-02-04T13:39:00.540Z,2.86
2023-02-04T13:40:02.423Z,2.87
2023-02-04T13:41:04.390Z,2.89
2023-02-04T13:42:06.241Z,2.88
2023-02-04T13:43:08.121Z,2.86
2023-02-04T13:44:09.968Z,2.82
2023-02-04T13:45:13.090Z,2.83
2023-02-04T13:46:15.132Z,2.83
2023-02-04T13:47:17.283Z,2.81
2023-02-04T13:48:19.177Z,2.81
2023-02-04T13:49:21.952Z,2.83
2023-02-04T13:50:24.095Z,2.80
2023-02-04T13:51:26.335Z,2.79
2023-02-04T13:52:28.256Z,2.80
2023-02-04T13:53:31.468Z,2.77
2023-02-04T13:54:33.443Z,2.75
2023-02-04T13:55:35.874Z,2.71